Time;durP1;ratioP1;P1;durP2;ratioP2;P2;SDS_P1;SDS_P2;PMS_P1;PMS_P2;Temp;Humidity;BMP_temperature;BMP_pressure;BME280_temperature;BME280_humidity;BME280_pressure;Samples;Min_cycle;Max_cycle;Signal;HPM_P1;HPM_P2
2021/07/12 00:00:24;;;;;;;;;3.00;3.00;;;;;19.69;65.04;100770.53;5076475;28;45514;-96
2021/07/12 00:03:11;;;;;;;;;;;;;;;;;;;;;
2021/07/12 00:05:54;;;;;;;;;;;;;;;;;;;;;
2021/07/12 00:08:34;;;;;;;;;3.00;3.00;;;;;19.61;65.30;100738.66;5069513;28;69183;-96
2021/07/12 00:11:10;;;;;;;;;;;;;;;;;;;;;
2021/07/12 00:14:01;;;;;;;;;2.25;2.25;;;;;20.02;65.21;100806.22;5070081;28;72875;-96
2021/07/12 00:17:08;;;;;;;;;;;;;;;;;;;;;
2021/07/12 00:20:15;;;;;;;;;;;;;;;;;;;;;
2021/07/12 00:27:01;;;;;;;;;3.25;3.25;;;;;20.30;65.75;100826.00;5078617;27;44918;-96
2021/07/12 00:29:58;;;;;;;;;3.00;3.00;;;;;19.40;65.48;100679.09;5069783;28;45389;-96
2021/07/12 00:33:01;;;;;;;;;;;;;;;;;;;;;
2021/07/12 00:36:01;;;;;;;;;;;;;;;;;;;;;
2021/07/12 00:42:12;;;;;;;;;3.00;3.00;;;;;19.31;65.81;100661.00;5028497;28;45532;-96
2021/07/12 00:45:53;;;;;;;;;3.25;3.25;;;;;20.20;66.18;100819.78;5008920;28;44843;-96
2021/07/12 00:48:33;;;;;;;;;;;;;;;;;;;;;
2021/07/12 00:51:25;;;;;;;;;;;;;;;;;;;;;
2021/07/12 00:54:27;;;;;;;;;;;;;;;;;;;;;
2021/07/12 00:57:24;;;;;;;;;;;;;;;;;;;;;
2021/07/12 01:00:06;;;;;;;;;;;;;;;;;;;;;
2021/07/12 01:06:08;;;;;;;;;2.75;2.75;;;;;19.97;66.90;100857.63;5021342;28;45267;-96
2021/07/12 01:09:00;;;;;;;;;;;;;;;;;;;;;
2021/07/12 01:12:18;;;;;;;;;;;;;;;;;;;;;
2021/07/12 01:15:52;;;;;;;;;;;;;;;;;;;;;
2021/07/12 01:18:56;;;;;;;;;3.50;3.50;;;;;19.87;67.12;100832.34;5033744;28;44966;-96
2021/07/12 01:22:15;;;;;;;;;4.50;4.50;;;;;19.85;67.70;100818.84;5045464;28;44882;-96
2021/07/12 01:25:21;;;;;;;;;5.00;4.00;;;;;19.31;67.13;100715.47;4995489;28;47379;-95
2021/07/12 01:27:53;;;;;;;;;3.00;3.00;;;;;19.87;67.60;100803.25;5060732;28;45463;-96
2021/07/12 01:31:05;;;;;;;;;4.00;4.00;;;;;19.18;67.67;100681.34;5088759;28;45415;-96
2021/07/12 01:34:02;;;;;;;;;4.75;3.50;;;;;19.83;67.80;100791.75;4990007;28;45414;-95
2021/07/12 01:36:48;;;;;;;;;4.50;4.00;;;;;18.85;67.31;100642.94;4983297;28;48060;-96
2021/07/12 01:39:31;;;;;;;;;;;;;;;;;;;;;
2021/07/12 01:42:21;;;;;;;;;3.00;3.00;;;;;19.54;67.33;100732.97;4987956;28;68061;-96
2021/07/12 01:45:34;;;;;;;;;4.00;4.00;;;;;18.94;67.19;100635.72;4990688;28;45236;-96
2021/07/12 01:48:31;;;;;;;;;3.50;2.75;;;;;19.58;67.95;100747.16;4905978;29;46809;-96
2021/07/12 01:51:14;;;;;;;;;;;;;;;;;;;;;
2021/07/12 01:54:16;;;;;;;;;4.75;4.75;;;;;19.08;67.83;100646.06;4909757;29;68066;-95
2021/07/12 01:57:25;;;;;;;;;;;;;;;;;;;;;
2021/07/12 02:02:49;;;;;;;;;3.50;3.50;;;;;19.26;67.92;100666.94;4929383;28;45510;-96
2021/07/12 02:05:49;;;;;;;;;;;;;;;;;;;;;
2021/07/12 02:08:26;;;;;;;;;3.00;3.00;;;;;19.08;67.83;100650.66;4912674;29;69034;-96
2021/07/12 02:11:00;;;;;;;;;3.75;3.75;;;;;18.98;67.61;100626.25;4954219;28;46993;-96
2021/07/12 02:13:32;;;;;;;;;5.00;3.00;;;;;19.01;67.76;100634.09;4992617;28;44846;-96
2021/07/12 02:16:07;;;;;;;;;4.25;3.75;;;;;19.04;67.85;100630.19;4995152;28;45349;-96
2021/07/12 02:18:54;;;;;;;;;;;;;;;;;;;;;
2021/07/12 02:21:33;;;;;;;;;;;;;;;;;;;;;
2021/07/12 02:24:04;;;;;;;;;4.25;3.75;;;;;19.02;67.43;100637.66;5090375;28;72960;-96
2021/07/12 02:26:37;;;;;;;;;4.00;4.00;;;;;19.85;67.78;100761.63;5092572;28;45270;-96
2021/07/12 02:29:09;;;;;;;;;4.50;4.50;;;;;19.35;68.00;100686.91;5093549;28;45483;-96
2021/07/12 02:32:02;;;;;;;;;;;;;;;;;;;;;
2021/07/12 02:34:42;;;;;;;;;3.50;3.50;;;;;19.33;68.28;100691.66;5106797;27;72095;-96
2021/07/12 02:37:16;;;;;;;;;2.00;2.00;;;;;18.99;68.14;100647.00;5119129;27;44778;-95
2021/07/12 02:40:02;;;;;;;;;3.75;3.50;;;;;18.82;67.96;100618.75;5087216;28;45357;-96
2021/07/12 02:42:34;;;;;;;;;3.00;3.00;;;;;19.56;67.91;100723.81;5086789;28;46844;-96
2021/07/12 02:45:28;;;;;;;;;2.75;2.75;;;;;19.53;67.86;100720.38;5108544;27;44916;-96
2021/07/12 02:48:29;;;;;;;;;;;;;;;;;;;;;
2021/07/12 02:51:27;;;;;;;;;4.00;3.75;;;;;19.65;67.74;100731.88;5071230;28;69272;-96
2021/07/12 02:54:30;;;;;;;;;3.00;3.00;;;;;19.24;67.65;100672.53;5071327;28;47170;-96
2021/07/12 02:57:11;;;;;;;;;;;;;;;;;;;;;
2021/07/12 03:00:00;;;;;;;;;3.00;3.00;;;;;19.26;68.04;100696.88;5092271;28;68070;-96
2021/07/12 03:03:07;;;;;;;;;;;;;;;;;;;;;
2021/07/12 03:05:33;;;;;;;;;4.00;4.00;;;;;18.88;67.78;100637.19;5072299;28;75229;-96
2021/07/12 03:08:10;;;;;;;;;3.50;3.50;;;;;19.75;68.18;100761.75;5066678;28;45341;-96
2021/07/12 03:10:51;;;;;;;;;4.00;4.00;;;;;19.40;68.70;100700.88;5066873;28;45373;-96
2021/07/12 03:14:08;;;;;;;;;5.00;4.00;;;;;18.91;69.00;100597.91;5062295;28;45242;-96
2021/07/12 03:16:37;;;;;;;;;2.25;2.25;;;;;19.27;68.94;100670.50;5058603;28;46785;-96
2021/07/12 03:19:13;;;;;;;;;3.00;3.00;;;;;19.42;69.09;100696.13;5081736;27;45481;-95
2021/07/12 03:21:45;;;;;;;;;4.00;4.00;;;;;19.61;68.98;100716.03;5065051;28;44772;-96
2021/07/12 03:24:13;;;;;;;;;4.00;4.00;;;;;19.18;68.95;100637.78;5062333;28;45391;-95
2021/07/12 03:26:46;;;;;;;;;4.00;4.00;;;;;18.84;69.06;100591.41;5081268;28;46940;-96
2021/07/12 03:29:13;;;;;;;;;4.00;4.00;;;;;18.80;68.87;100590.00;5098721;27;45430;-96
2021/07/12 03:31:40;;;;;;;;;5.00;4.00;;;;;18.82;68.96;100580.69;5082118;27;45419;-96
2021/07/12 03:34:13;;;;;;;;;4.50;4.50;;;;;18.97;69.09;100602.78;5099338;27;45424;-96
2021/07/12 03:36:40;;;;;;;;;3.25;3.25;;;;;18.86;68.74;100567.63;5080533;28;46964;-96
2021/07/12 03:39:06;;;;;;;;;3.00;3.00;;;;;18.88;68.67;100562.91;5097857;27;45516;-96
2021/07/12 03:41:32;;;;;;;;;5.25;5.25;;;;;18.90;68.80;100574.44;5057331;28;45262;-96
2021/07/12 03:43:59;;;;;;;;;6.50;5.25;;;;;19.07;69.36;100610.84;5057546;28;45499;-95
2021/07/12 03:46:25;;;;;;;;;3.50;3.50;;;;;18.87;69.29;100574.78;5057925;28;46788;-95
2021/07/12 03:48:50;;;;;;;;;3.25;3.25;;;;;19.15;69.29;100619.06;5071714;28;44859;-96
2021/07/12 03:51:27;;;;;;;;;4.75;4.00;;;;;19.66;69.05;100703.63;5074650;28;45452;-96
2021/07/12 03:53:55;;;;;;;;;3.50;3.50;;;;;18.82;69.27;100580.69;5073063;27;45250;-96
2021/07/12 03:56:22;;;;;;;;;4.75;2.75;;;;;18.96;69.04;100594.78;5072563;27;47599;-96
2021/07/12 03:58:47;;;;;;;;;4.25;4.25;;;;;19.16;69.05;100630.81;5039358;28;45451;-95
2021/07/12 04:01:21;;;;;;;;;4.25;4.25;;;;;19.26;69.58;100645.16;5076861;28;45518;-95
2021/07/12 04:03:48;;;;;;;;;5.00;5.00;;;;;19.18;69.42;100634.19;5060368;28;45519;-96
2021/07/12 04:06:14;;;;;;;;;4.00;3.25;;;;;19.44;69.49;100683.22;5077037;28;47079;-95
2021/07/12 04:08:40;;;;;;;;;3.00;3.00;;;;;18.59;69.21;100536.84;5060242;28;45837;-95
2021/07/12 04:11:18;;;;;;;;;3.00;3.00;;;;;18.70;69.17;100536.59;5081457;28;45382;-96
2021/07/12 04:13:46;;;;;;;;;4.75;3.25;;;;;19.27;68.85;100638.72;5082859;28;45428;-96
2021/07/12 04:16:12;;;;;;;;;5.00;5.00;;;;;19.13;68.79;100617.50;5099533;27;46774;-95
2021/07/12 04:18:38;;;;;;;;;5.00;5.00;;;;;19.48;68.86;100681.03;5083599;28;45321;-96
2021/07/12 04:21:06;;;;;;;;;3.75;3.75;;;;;18.73;69.27;100541.72;5083548;28;45393;-95
2021/07/12 04:23:35;;;;;;;;;4.00;4.00;;;;;19.14;68.82;100622.78;5083431;28;45424;-96
2021/07/12 04:26:00;;;;;;;;;5.50;5.00;;;;;18.64;69.06;100539.91;5083765;28;47143;-95
2021/07/12 04:28:33;;;;;;;;;3.75;3.75;;;;;18.65;69.30;100527.19;5083322;28;45175;-95
2021/07/12 04:30:59;;;;;;;;;4.50;3.00;;;;;19.20;69.10;100610.41;5100556;27;45258;-96
2021/07/12 04:33:28;;;;;;;;;6.00;5.00;;;;;18.98;68.85;100604.47;5081886;28;45206;-96
2021/07/12 04:35:59;;;;;;;;;3.25;2.00;;;;;19.52;69.40;100672.41;5086336;28;46944;-95
2021/07/12 04:38:58;;;;;;;;;;;;;;;;;;;;;
2021/07/12 04:41:27;;;;;;;;;3.50;3.00;;;;;18.60;69.14;100525.78;5090043;28;67961;-96
2021/07/12 04:44:16;;;;;;;;;3.50;3.00;;;;;19.27;68.57;100643.28;5109349;27;45266;-96
2021/07/12 04:47:10;;;;;;;;;;;;;;;;;;;;;
2021/07/12 04:49:52;;;;;;;;;;;;;;;;;;;;;
2021/07/12 04:54:53;;;;;;;;;3.25;2.25;;;;;19.12;69.34;100616.66;5036235;22;44917;-96
2021/07/12 04:57:19;;;;;;;;;3.75;1.75;;;;;18.94;69.28;100581.31;5029353;28;47108;-95
2021/07/12 04:59:45;;;;;;;;;3.50;3.50;;;;;18.71;69.63;100562.75;5042928;28;45263;-96
2021/07/12 05:02:14;;;;;;;;;3.50;3.50;;;;;19.15;69.61;100632.66;5026760;28;45270;-96
2021/07/12 05:04:41;;;;;;;;;2.00;2.00;;;;;18.70;69.61;100555.63;5042778;28;44937;-96
2021/07/12 05:07:07;;;;;;;;;4.00;3.00;;;;;19.02;69.30;100603.16;5060353;28;47322;-96
2021/07/12 05:09:35;;;;;;;;;4.00;4.00;;;;;19.23;69.19;100643.63;5042729;28;45080;-96
2021/07/12 05:12:08;;;;;;;;;4.75;3.25;;;;;18.74;69.68;100558.88;5031380;28;44576;-96
2021/07/12 05:14:35;;;;;;;;;4.00;3.00;;;;;18.91;69.74;100593.34;5022734;28;45224;-95
2021/07/12 05:17:01;;;;;;;;;2.00;2.00;;;;;18.66;70.00;100543.34;5022656;28;47375;-95
2021/07/12 05:19:29;;;;;;;;;5.00;5.00;;;;;18.66;69.63;100543.34;5022758;28;45279;-96
2021/07/12 05:21:57;;;;;;;;;4.00;2.00;;;;;19.19;69.68;100634.06;5027401;28;45441;-96
2021/07/12 05:24:23;;;;;;;;;3.25;3.00;;;;;18.65;69.85;100546.22;5022196;28;45429;-95
2021/07/12 05:26:49;;;;;;;;;2.00;2.00;;;;;18.60;69.20;100544.81;5020858;28;46886;-95
2021/07/12 05:29:14;;;;;;;;;2.75;2.75;;;;;18.55;69.47;100532.72;5021242;28;45279;-95
2021/07/12 05:31:40;;;;;;;;;2.00;2.00;;;;;19.13;69.27;100621.06;5019894;28;45259;-96
2021/07/12 05:34:06;;;;;;;;;3.00;3.00;;;;;19.11;70.19;100623.09;5036363;28;45232;-96
2021/07/12 05:36:32;;;;;;;;;3.25;3.25;;;;;18.55;70.13;100533.56;5022845;28;46713;-96
2021/07/12 05:39:09;;;;;;;;;3.00;3.00;;;;;19.02;69.83;100608.59;5045276;28;45263;-96
2021/07/12 05:41:35;;;;;;;;;3.00;3.00;;;;;18.50;70.71;100533.19;5006739;28;45426;-96
2021/07/12 05:44:01;;;;;;;;;3.75;3.00;;;;;18.44;70.71;100521.09;5018729;28;46831;-96
2021/07/12 05:46:29;;;;;;;;;3.50;3.50;;;;;18.54;71.00;100545.44;5026304;28;45548;-95
2021/07/12 05:49:07;;;;;;;;;2.50;2.50;;;;;18.58;71.45;100546.00;5025773;28;44837;-95
2021/07/12 05:51:52;;;;;;;;;;;;;;;;;;;;;
2021/07/12 05:54:25;;;;;;;;;5.00;4.50;;;;;18.31;70.88;100518.75;5037956;28;68853;-95
2021/07/12 05:56:59;;;;;;;;;3.00;3.00;;;;;19.07;71.12;100646.22;5032249;28;46943;-96
2021/07/12 05:59:36;;;;;;;;;;;;;;;;;;;;;
2021/07/12 06:02:06;;;;;;;;;4.50;4.50;;;;;18.68;70.90;100597.56;5026561;28;68899;-96
2021/07/12 06:04:51;;;;;;;;;;;;;;;;;;;;;
2021/07/12 06:07:27;;;;;;;;;4.75;4.25;;;;;18.20;71.79;100529.00;5026983;28;75320;-96
2021/07/12 06:10:29;;;;;;;;;;;;;;;;;;;;;
2021/07/12 06:13:52;;;;;;;;;;;;;;;;;;;;;
2021/07/12 06:17:00;;;;;;;;;;;;;;;;;;;;;
2021/07/12 06:24:12;;;;;;;;;;;;;;;;;;;;;
2021/07/12 06:26:47;;;;;;;;;5.00;4.75;;;;;18.02;73.21;100517.13;5043522;28;68048;-96
2021/07/12 06:29:25;;;;;;;;;5.00;4.00;;;;;18.06;73.24;100525.81;5031460;28;44747;-96
2021/07/12 06:31:58;;;;;;;;;4.00;3.25;;;;;18.54;73.57;100601.69;5026499;28;46843;-96
2021/07/12 06:34:35;;;;;;;;;5.00;4.25;;;;;18.27;73.80;100570.88;5007895;28;45650;-95
2021/07/12 06:37:44;;;;;;;;;;;;;;;;;;;;;
2021/07/12 06:54:49;;;;;;;;;;;;;;;;;;;;;
2021/07/12 09:38:10;;;;;;;;;;;;;;;;;;;;;
2021/07/12 09:41:24;;;;;;;;;6.00;5.75;;;;;18.27;79.70;100601.59;6286332;22;73804;-96
2021/07/12 09:44:44;;;;;;;;;;;;;;;;;;;;;
2021/07/12 09:48:21;;;;;;;;;;;;;;;;;;;;;
2021/07/12 10:02:04;;;;;;;;;;;;;;;;;;;;;
2021/07/12 11:07:46;;;;;;;;;;;;;;;;;;;;;
2021/07/12 11:16:59;;;;;;;;;;;;;;;;;;;;;
2021/07/12 11:23:15;;;;;;;;;;;;;;;;;;;;;
2021/07/12 11:26:42;;;;;;;;;;;;;;;;;;;;;
2021/07/12 14:41:08;;;;;;;;;;;;;;;;;;;;;
2021/07/12 14:44:34;;;;;;;;;;;;;;;;;;;;;
2021/07/12 14:51:25;;;;;;;;;;;;;;;;;;;;;
2021/07/12 16:42:28;;;;;;;;;;;;;;;;;;;;;
2021/07/12 16:45:25;;;;;;;;;;;;;;;;;;;;;
2021/07/12 16:56:08;;;;;;;;;;;;;;;;;;;;;
2021/07/12 17:40:02;;;;;;;;;8.25;8.00;;;;;20.75;77.39;100512.97;5929436;24;44879;-96
2021/07/12 17:42:40;;;;;;;;;6.00;6.00;;;;;21.08;74.92;100588.50;5904026;24;47112;-95
2021/07/12 17:45:23;;;;;;;;;5.50;5.50;;;;;20.03;75.08;100463.72;5901017;24;45447;-95
2021/07/12 17:48:01;;;;;;;;;6.50;6.50;;;;;19.80;76.55;100459.75;5900414;24;45269;-95
2021/07/12 17:50:59;;;;;;;;;4.75;4.75;;;;;19.54;76.39;100459.84;5902531;24;45452;-96
2021/07/12 17:53:25;;;;;;;;;6.25;6.00;;;;;20.28;76.78;100603.59;5985613;23;45411;-95
2021/07/12 17:56:05;;;;;;;;;6.75;6.75;;;;;19.33;78.07;100469.28;5987284;23;45415;-94
2021/07/12 17:58:42;;;;;;;;;5.50;5.50;;;;;19.44;78.71;100508.97;6088488;22;44919;-95
2021/07/12 18:01:18;;;;;;;;;;;;;;;;;;;;;
2021/07/12 18:03:47;;;;;;;;;7.50;6.75;;;;;19.14;78.60;100456.78;6314843;22;74537;-95
2021/07/12 18:06:22;;;;;;;;;8.00;7.00;;;;;20.02;78.44;100603.72;6339766;22;45210;-95
2021/07/12 18:08:57;;;;;;;;;7.25;7.25;;;;;18.99;78.92;100455.69;6315143;22;45350;-94
2021/07/12 18:11:24;;;;;;;;;7.00;7.00;;;;;19.13;79.10;100476.84;6313956;22;45509;-95
2021/07/12 18:13:51;;;;;;;;;8.75;7.75;;;;;19.95;79.64;100614.44;6314847;22;47616;-95
2021/07/12 18:16:25;;;;;;;;;5.50;5.50;;;;;19.16;79.38;100497.47;6318993;22;45176;-95
2021/07/12 18:18:51;;;;;;;;;7.75;7.00;;;;;19.22;79.50;100516.72;6340997;22;45212;-95
2021/07/12 18:21:35;;;;;;;;;7.25;5.75;;;;;19.37;79.79;100537.88;6370800;22;45438;-96
2021/07/12 18:24:03;;;;;;;;;6.25;4.25;;;;;19.57;79.71;100571.16;6339940;22;47739;-94
2021/07/12 18:26:32;;;;;;;;;5.50;4.00;;;;;18.96;79.68;100485.97;6366466;22;45223;-95
2021/07/12 18:29:00;;;;;;;;;4.00;3.50;;;;;19.02;79.86;100509.78;6342043;22;45298;-95
2021/07/12 18:31:29;;;;;;;;;4.00;4.00;;;;;18.99;79.61;100499.22;6342698;22;45178;-95
2021/07/12 18:34:03;;;;;;;;;6.25;5.50;;;;;18.88;79.71;100486.72;6340560;22;47121;-95
2021/07/12 18:36:31;;;;;;;;;3.00;3.00;;;;;19.51;79.64;100597.19;6342502;22;45618;-95
2021/07/12 18:39:00;;;;;;;;;3.50;3.50;;;;;18.97;79.02;100521.16;6365877;22;45272;-95
2021/07/12 18:41:34;;;;;;;;;7.50;5.50;;;;;18.92;79.52;100508.00;6329406;22;45471;-95
2021/07/12 18:44:03;;;;;;;;;4.00;3.25;;;;;18.84;79.04;100513.38;6342943;22;46953;-95
2021/07/12 18:46:31;;;;;;;;;4.00;2.75;;;;;18.84;79.02;100509.81;6343240;22;44926;-96
2021/07/12 18:49:03;;;;;;;;;4.50;4.50;;;;;19.19;79.26;100582.34;6370683;22;44760;-95
2021/07/12 18:51:42;;;;;;;;;;;;;;;;;;;;;
2021/07/12 18:54:19;;;;;;;;;3.50;3.50;;;;;18.90;79.68;100541.81;6346612;22;74648;-95
2021/07/12 18:56:54;;;;;;;;;4.50;4.50;;;;;19.52;80.24;100641.59;6346793;22;44844;-94
2021/07/12 18:59:22;;;;;;;;;3.50;3.50;;;;;18.83;80.25;100538.88;6347044;22;45125;-95
2021/07/12 19:01:49;;;;;;;;;4.50;3.00;;;;;18.85;79.89;100544.16;6373145;22;45339;-95
2021/07/12 19:04:19;;;;;;;;;6.00;4.50;;;;;18.84;80.40;100546.03;6345540;22;47221;-95
2021/07/12 19:06:58;;;;;;;;;;;;;;;;;;;;;
2021/07/12 19:09:36;;;;;;;;;;;;;;;;;;;;;
2021/07/12 19:12:18;;;;;;;;;;;;;;;;;;;;;
2021/07/12 19:15:03;;;;;;;;;;;;;;;;;;;;;
2021/07/12 19:17:53;;;;;;;;;3.25;3.25;;;;;18.99;80.22;100580.84;6351840;22;72182;-95
2021/07/12 19:20:39;;;;;;;;;4.25;4.00;;;;;19.04;80.11;100589.38;6329729;22;44599;-94
2021/07/12 19:23:05;;;;;;;;;3.75;3.75;;;;;18.81;79.69;100568.13;6351992;22;45193;-93
2021/07/12 19:25:35;;;;;;;;;5.50;3.75;;;;;19.65;79.48;100711.97;6345959;22;46826;-94
2021/07/12 19:28:09;;;;;;;;;4.00;4.00;;;;;18.70;79.03;100579.22;6342393;22;45391;-93
2021/07/12 19:31:12;;;;;;;;;4.25;2.75;;;;;19.56;78.73;100719.22;6342354;22;45471;-95
2021/07/12 19:33:46;;;;;;;;;5.00;4.25;;;;;18.60;79.25;100568.44;6345436;22;44826;-94
2021/07/12 19:36:21;;;;;;;;;5.50;4.50;;;;;18.50;79.87;100544.06;6344175;22;46709;-95
2021/07/12 19:39:27;;;;;;;;;;;;;;;;;;;;;
2021/07/12 19:42:49;;;;;;;;;;;;;;;;;;;;;
2021/07/12 19:49:01;;;;;;;;;;;;;;;;;;;;;
2021/07/12 19:51:40;;;;;;;;;;;;;;;;;;;;;
2021/07/12 19:54:49;;;;;;;;;6.50;6.50;;;;;18.93;80.70;100623.97;6129761;23;68133;-93
2021/07/12 19:57:33;;;;;;;;;;;;;;;;;;;;;
2021/07/12 20:00:18;;;;;;;;;;;;;;;;;;;;;
2021/07/12 20:03:04;;;;;;;;;8.00;5.25;;;;;18.62;80.30;100575.44;6127009;23;72203;-94
2021/07/12 20:05:31;;;;;;;;;5.25;4.00;;;;;19.28;79.67;100691.28;6102363;23;45224;-95
2021/07/12 20:07:57;;;;;;;;;4.00;4.00;;;;;19.22;79.69;100685.47;6099255;23;44715;-94
2021/07/12 20:10:29;;;;;;;;;3.25;3.25;;;;;18.57;79.70;100599.50;6098913;23;47082;-95
2021/07/12 20:12:55;;;;;;;;;3.75;3.25;;;;;18.52;79.28;100606.44;6104712;23;45284;-96
2021/07/12 20:15:22;;;;;;;;;1.75;1.75;;;;;18.47;79.43;100604.19;6103206;23;45262;-95
2021/07/12 20:17:48;;;;;;;;;3.00;3.00;;;;;18.98;80.05;100694.28;6104175;23;45679;-96
2021/07/12 20:20:17;;;;;;;;;4.00;4.00;;;;;19.15;79.10;100721.63;6102817;23;45344;-95
2021/07/12 20:22:43;;;;;;;;;4.00;4.00;;;;;18.59;79.52;100632.00;6144721;23;45329;-96
2021/07/12 20:25:11;;;;;;;;;3.00;3.00;;;;;18.47;80.16;100634.09;6208107;22;44749;-96
2021/07/12 20:27:38;;;;;;;;;1.00;1.00;;;;;19.02;79.86;100731.03;6309952;22;44778;-95
2021/07/12 20:30:08;;;;;;;;;3.00;3.00;;;;;18.43;79.78;100646.28;6337106;22;46748;-96
2021/07/12 20:32:35;;;;;;;;;2.00;2.00;;;;;18.36;79.38;100640.59;6310191;22;45199;-95
2021/07/12 20:35:02;;;;;;;;;4.75;4.75;;;;;18.47;80.03;100664.00;6309478;22;45252;-96
2021/07/12 20:37:27;;;;;;;;;3.00;3.00;;;;;18.80;79.63;100710.56;6309861;22;45348;-96
2021/07/12 20:39:53;;;;;;;;;3.00;3.00;;;;;18.37;80.02;100639.59;6309400;22;46915;-96
2021/07/12 20:42:19;;;;;;;;;2.00;2.00;;;;;18.40;79.88;100633.84;6314752;22;45397;-96
2021/07/12 20:44:46;;;;;;;;;2.50;2.50;;;;;19.04;79.91;100728.16;6315433;22;45272;-96
2021/07/12 20:47:15;;;;;;;;;4.00;3.00;;;;;19.02;80.24;100725.59;6314661;22;45372;-96
2021/07/12 20:49:41;;;;;;;;;2.75;2.50;;;;;19.08;80.23;100724.97;6315314;22;47213;-95
2021/07/12 20:52:06;;;;;;;;;3.00;3.00;;;;;18.39;80.13;100591.38;6314193;22;45309;-95
2021/07/12 20:54:34;;;;;;;;;3.00;3.00;;;;;18.26;80.02;100582.75;6340628;22;45198;-95
2021/07/12 20:56:59;;;;;;;;;2.00;2.00;;;;;18.28;80.15;100606.03;6314765;22;45412;-96
2021/07/12 20:59:25;;;;;;;;;4.00;2.50;;;;;18.85;80.33;100708.22;6341844;22;46789;-96
2021/07/12 21:01:55;;;;;;;;;6.75;4.50;;;;;18.63;79.98;100679.59;6341799;22;44750;-95
2021/07/12 21:04:24;;;;;;;;;2.50;2.50;;;;;18.11;79.75;100598.69;6318019;22;45308;-96
2021/07/12 21:06:50;;;;;;;;;5.00;3.00;;;;;18.28;80.09;100621.50;6342971;22;45272;-96
2021/07/12 21:09:16;;;;;;;;;3.00;3.00;;;;;18.64;80.67;100673.16;6317132;22;46940;-96
2021/07/12 21:11:41;;;;;;;;;4.25;4.25;;;;;18.25;80.14;100622.63;6317418;22;45596;-96
2021/07/12 21:14:07;;;;;;;;;3.00;3.00;;;;;18.76;80.61;100693.69;6345783;22;45347;-96
2021/07/12 21:20:06;;;;;;;;;5.00;4.00;;;;;18.67;80.60;100700.06;6288060;22;45560;-96
2021/07/12 21:22:45;;;;;;;;;;;;;;;;;;;;;
2021/07/12 21:25:14;;;;;;;;;4.00;4.00;;;;;18.24;80.91;100626.34;6285678;22;67707;-94
2021/07/12 21:27:45;;;;;;;;;5.00;5.00;;;;;18.25;81.03;100621.78;6258466;22;44856;-95
2021/07/12 21:30:14;;;;;;;;;6.00;5.00;;;;;18.26;80.74;100623.50;6251393;22;48071;-96
2021/07/12 21:32:46;;;;;;;;;5.75;5.00;;;;;18.72;81.20;100699.59;6252601;22;45295;-96
2021/07/12 21:35:25;;;;;;;;;;;;;;;;;;;;;
2021/07/12 21:37:53;;;;;;;;;5.50;5.00;;;;;18.22;80.91;100636.56;6277981;22;69255;-96
2021/07/12 21:40:24;;;;;;;;;8.25;6.50;;;;;18.81;80.48;100727.72;6255382;22;46999;-95
2021/07/12 21:42:55;;;;;;;;;6.75;6.75;;;;;18.26;81.06;100635.22;6256181;22;45397;-94
2021/07/12 21:45:22;;;;;;;;;10.50;7.00;;;;;18.35;80.86;100644.31;6259714;22;45244;-95
2021/07/12 21:47:48;;;;;;;;;7.50;7.50;;;;;18.31;80.81;100632.06;6264890;22;45216;-95
2021/07/12 21:50:15;;;;;;;;;7.75;7.75;;;;;18.30;81.13;100635.78;6302098;22;46747;-95
2021/07/12 21:52:42;;;;;;;;;12.00;10.50;;;;;18.78;81.32;100718.84;6276357;22;44911;-93
2021/07/12 21:55:09;;;;;;;;;11.50;11.50;;;;;18.60;80.99;100685.34;6259742;22;45346;-95
2021/07/12 21:58:29;;;;;;;;;12.00;12.00;;;;;18.23;80.83;100638.25;6301850;22;45193;-94
2021/07/12 22:00:59;;;;;;;;;16.25;14.00;;;;;19.13;81.18;100787.09;6318041;22;48136;-94
2021/07/12 22:03:26;;;;;;;;;13.75;12.75;;;;;18.15;81.30;100630.88;6318132;22;45171;-96
2021/07/12 22:05:52;;;;;;;;;15.25;15.25;;;;;18.30;81.22;100662.97;6343843;22;45255;-95
2021/07/12 22:08:20;;;;;;;;;13.75;13.75;;;;;18.31;80.65;100667.41;6344090;22;45461;-96
2021/07/12 22:10:48;;;;;;;;;12.25;11.00;;;;;18.26;80.79;100669.69;6344336;22;47211;-94
2021/07/12 22:13:16;;;;;;;;;10.50;10.50;;;;;18.17;80.63;100650.56;6319606;22;45173;-94
2021/07/12 22:15:45;;;;;;;;;11.25;10.00;;;;;18.24;80.35;100666.28;6346369;22;45124;-95
2021/07/12 22:18:15;;;;;;;;;11.00;10.00;;;;;18.19;80.17;100655.00;6320897;22;45271;-95
2021/07/12 22:20:41;;;;;;;;;10.25;10.25;;;;;18.56;80.37;100713.88;6346030;22;46719;-95
2021/07/12 22:23:16;;;;;;;;;8.25;8.25;;;;;18.84;80.42;100758.19;6346217;22;45195;-95
2021/07/12 22:25:42;;;;;;;;;8.25;7.25;;;;;18.19;80.39;100660.44;6317298;22;44658;-96
2021/07/12 22:28:09;;;;;;;;;9.50;9.50;;;;;18.08;79.83;100632.47;6313310;22;45194;-95
2021/07/12 22:30:44;;;;;;;;;6.25;6.25;;;;;17.99;80.07;100638.81;6314242;22;46676;-95
2021/07/12 22:33:13;;;;;;;;;4.50;4.50;;;;;18.01;79.34;100656.66;6316059;22;45270;-96
2021/07/12 22:35:39;;;;;;;;;5.50;5.50;;;;;18.88;79.58;100797.69;6321624;22;45104;-95
2021/07/12 22:38:06;;;;;;;;;3.75;3.75;;;;;17.99;79.24;100661.41;6335445;22;44796;-94
2021/07/12 22:40:32;;;;;;;;;4.00;4.00;;;;;18.44;79.24;100756.72;6325887;22;47157;-93
2021/07/12 22:42:58;;;;;;;;;2.00;2.00;;;;;17.82;79.06;100682.03;6342145;22;45763;-95
2021/07/12 22:45:26;;;;;;;;;5.75;5.75;;;;;17.84;79.51;100685.47;6310502;22;45365;-96
2021/07/12 22:47:53;;;;;;;;;3.00;3.00;;;;;17.58;79.63;100640.97;6336428;22;45244;-96
2021/07/12 22:50:35;;;;;;;;;4.00;4.00;;;;;17.78;79.22;100686.03;6312662;22;47018;-95
2021/07/12 22:53:14;;;;;;;;;3.50;2.75;;;;;18.08;79.32;100735.72;6313918;22;45583;-95
2021/07/12 22:55:39;;;;;;;;;4.00;3.25;;;;;17.63;79.24;100668.50;6315878;22;45263;-95
2021/07/12 22:58:05;;;;;;;;;4.75;4.75;;;;;17.68;79.46;100672.50;6316654;22;45520;-95
2021/07/12 23:00:32;;;;;;;;;2.50;2.00;;;;;17.76;79.42;100690.75;6315035;22;46605;-94
2021/07/12 23:02:58;;;;;;;;;3.50;3.50;;;;;17.63;79.00;100679.38;6315374;22;45182;-96
2021/07/12 23:05:24;;;;;;;;;3.00;3.00;;;;;17.67;79.36;100692.50;6314971;22;45388;-95
2021/07/12 23:07:52;;;;;;;;;5.00;3.50;;;;;17.50;78.95;100672.41;6315464;22;45250;-96
2021/07/12 23:10:19;;;;;;;;;3.25;3.00;;;;;18.16;79.37;100789.31;6287829;22;47637;-95
2021/07/12 23:12:46;;;;;;;;;4.50;3.50;;;;;17.62;79.53;100732.81;6308890;22;45185;-94
2021/07/12 23:15:17;;;;;;;;;2.50;2.50;;;;;17.52;79.38;100715.72;6308635;22;45167;-94
2021/07/12 23:17:44;;;;;;;;;5.25;5.00;;;;;17.68;79.15;100740.38;6337396;22;45288;-95
2021/07/12 23:20:12;;;;;;;;;2.00;2.00;;;;;17.63;79.63;100720.09;6313676;22;46751;-94
2021/07/12 23:22:39;;;;;;;;;4.00;4.00;;;;;17.94;79.20;100744.31;6312315;22;45433;-96
2021/07/12 23:25:06;;;;;;;;;2.75;2.75;;;;;18.21;79.05;100783.44;6338291;22;45276;-96
2021/07/12 23:27:32;;;;;;;;;3.00;3.00;;;;;18.15;79.10;100777.59;6312186;22;44857;-95
2021/07/12 23:30:03;;;;;;;;;3.25;2.25;;;;;17.56;78.95;100682.69;6340769;22;47122;-96
2021/07/12 23:32:32;;;;;;;;;3.00;3.00;;;;;17.78;78.98;100720.50;6341085;22;44881;-96
2021/07/12 23:34:58;;;;;;;;;4.00;2.00;;;;;18.28;78.64;100815.28;6340617;22;45407;-94
2021/07/12 23:37:24;;;;;;;;;5.00;4.25;;;;;17.97;79.17;100780.22;6314156;22;45417;-95
2021/07/12 23:39:49;;;;;;;;;3.25;3.25;;;;;17.54;78.52;100716.41;6341325;22;46841;-96
2021/07/12 23:42:15;;;;;;;;;5.00;4.00;;;;;17.86;79.17;100780.34;6314254;22;45148;-95
2021/07/12 23:44:41;;;;;;;;;6.00;3.50;;;;;17.61;79.15;100733.81;6316096;22;45286;-95
2021/07/12 23:47:06;;;;;;;;;4.00;4.00;;;;;17.58;78.85;100712.41;6314709;22;44785;-96
2021/07/12 23:49:35;;;;;;;;;4.25;4.25;;;;;18.28;79.02;100850.63;6314119;22;47096;-95
2021/07/12 23:52:00;;;;;;;;;5.50;4.00;;;;;17.64;78.39;100738.09;6340342;22;44922;-95
2021/07/12 23:54:26;;;;;;;;;3.50;3.00;;;;;17.53;78.41;100714.69;6315443;22;45281;-96
2021/07/12 23:56:52;;;;;;;;;3.00;2.00;;;;;17.64;78.17;100749.84;6315132;22;44913;-95
2021/07/12 23:59:18;;;;;;;;;2.25;2.25;;;;;17.62;78.11;100743.69;6341606;22;47022;-96
